Terminal Aerodrome Forecast
Issued by NWS Charleston, WV

Current Version | Previous Version | Graphics & Text | Print | Product List | Glossary On
Versions: 1 2 3 4 5 6 7 8 9 10 11 12 13 14 15 16 17 18 19 20 21
000
FTUS41 KRLX 030530
TAFBKW
TAF
KBKW 030530Z 0306/0406 00000KT P6SM SKC
     FM030800 00000KT P6SM SCT120
     FM031700 32005KT P6SM VCTS BKN035CB
     FM040000 35004KT P6SM BKN035
     FM040300 00000KT 6SM BR SCT045=

USA.gov is the U.S. government's official web portal to all federal, state and local government web resources and services.